createdAt,value
2023-08-05T00:00:38.737Z,5.35
2023-08-05T00:03:05.340Z,5.28
2023-08-05T00:05:32.196Z,7.35
2023-08-05T00:07:58.747Z,6.75
2023-08-05T00:10:25.328Z,7.03
2023-08-05T00:12:52.087Z,6.57
2023-08-05T00:15:18.901Z,5.78
2023-08-05T00:17:45.896Z,6.70
2023-08-05T00:20:13.699Z,6.32
2023-08-05T00:22:41.630Z,7.20
2023-08-05T00:25:08.562Z,6.50
2023-08-05T00:27:35.058Z,5.88
2023-08-05T00:30:01.739Z,6.38
2023-08-05T00:32:29.075Z,7.00
2023-08-05T00:34:55.712Z,7.03
2023-08-05T00:37:22.348Z,6.18
2023-08-05T00:39:49.161Z,6.30
2023-08-05T00:42:20.155Z,6.25
2023-08-05T00:44:47.352Z,7.03
2023-08-05T00:47:17.446Z,6.40
2023-08-05T00:49:44.223Z,6.57
2023-08-05T00:52:11.174Z,6.63
2023-08-05T00:54:37.979Z,6.07
2023-08-05T00:57:05.051Z,6.38
2023-08-05T00:59:31.831Z,7.22
2023-08-05T01:01:58.878Z,6.75
2023-08-05T01:04:25.625Z,7.28
2023-08-05T01:06:54.326Z,7.20
2023-08-05T01:09:21.826Z,7.47
2023-08-05T01:11:48.842Z,6.60
2023-08-05T01:14:15.344Z,7.47
2023-08-05T01:16:42.224Z,7.13
2023-08-05T01:19:14.319Z,6.38
2023-08-05T01:21:56.430Z,6.90
2023-08-05T01:24:36.030Z,7.78
2023-08-05T01:27:04.037Z,7.00
2023-08-05T01:29:31.073Z,7.07
2023-08-05T01:31:57.905Z,5.80
2023-08-05T01:34:25.116Z,6.00
2023-08-05T01:36:52.109Z,5.65
2023-08-05T01:39:19.144Z,6.15
2023-08-05T01:41:45.669Z,6.35
2023-08-05T01:44:12.501Z,6.80
2023-08-05T01:46:39.296Z,8.18
2023-08-05T01:49:05.927Z,8.25
2023-08-05T01:51:32.717Z,7.47
2023-08-05T01:53:59.692Z,7.70
2023-08-05T01:56:26.228Z,7.88
2023-08-05T01:58:52.748Z,8.48
2023-08-05T02:01:19.299Z,9.10
2023-08-05T02:03:46.019Z,9.85
2023-08-05T02:06:12.933Z,9.50
2023-08-05T02:08:39.465Z,8.98
2023-08-05T02:11:06.927Z,9.38
2023-08-05T02:13:33.496Z,9.48
2023-08-05T02:16:00.281Z,9.73
2023-08-05T02:18:27.083Z,10.13
2023-08-05T02:20:53.597Z,9.93
2023-08-05T02:23:20.064Z,39.08
2023-08-05T02:25:46.903Z,14.13
2023-08-05T02:28:13.697Z,11.13
2023-08-05T02:30:40.251Z,12.52
2023-08-05T02:33:07.194Z,10.02
2023-08-05T02:35:34.105Z,10.63
2023-08-05T02:38:00.745Z,10.48
2023-08-05T02:40:27.487Z,10.40
2023-08-05T02:42:54.023Z,10.40
2023-08-05T02:45:20.766Z,10.13
2023-08-05T02:47:47.304Z,10.80
2023-08-05T02:50:14.425Z,10.27
2023-08-05T02:52:41.282Z,10.45
2023-08-05T02:55:08.051Z,10.15
2023-08-05T02:57:34.558Z,9.80
2023-08-05T03:00:01.398Z,10.75
2023-08-05T03:02:27.977Z,10.77
2023-08-05T03:04:54.557Z,11.10
2023-08-05T03:07:21.394Z,18.17
2023-08-05T03:09:48.711Z,14.10
2023-08-05T03:12:15.468Z,10.98
2023-08-05T03:14:42.006Z,11.38
2023-08-05T03:17:08.767Z,11.40
2023-08-05T03:19:35.393Z,11.07
2023-08-05T03:22:01.948Z,9.80
2023-08-05T03:24:28.998Z,11.00
2023-08-05T03:26:55.763Z,11.30
2023-08-05T03:29:22.512Z,10.68
2023-08-05T03:31:49.306Z,11.25
2023-08-05T03:34:18.102Z,10.98
2023-08-05T03:36:45.040Z,11.40
2023-08-05T03:39:11.778Z,11.55
2023-08-05T03:41:38.645Z,11.55
2023-08-05T03:44:05.180Z,11.95
2023-08-05T03:46:31.922Z,11.27
2023-08-05T03:48:58.984Z,11.65
2023-08-05T03:51:25.706Z,12.10
2023-08-05T03:53:52.437Z,12.25
2023-08-05T03:56:23.361Z,11.32
2023-08-05T03:58:52.764Z,11.10
2023-08-05T04:01:20.948Z,10.40
2023-08-05T04:03:47.600Z,12.20
2023-08-05T04:06:14.358Z,12.20
2023-08-05T04:08:41.400Z,12.43
2023-08-05T04:11:09.489Z,10.95
2023-08-05T04:13:40.704Z,12.48
2023-08-05T04:16:10.286Z,9.65
2023-08-05T04:18:38.539Z,10.73
2023-08-05T04:21:06.086Z,8.48
2023-08-05T04:23:34.583Z,10.63
2023-08-05T04:26:02.496Z,10.73
2023-08-05T04:28:28.997Z,8.45
2023-08-05T04:30:56.292Z,10.00
2023-08-05T04:33:23.110Z,10.80
2023-08-05T04:35:50.838Z,11.80
2023-08-05T04:38:17.443Z,11.23
2023-08-05T04:40:44.499Z,10.13
2023-08-05T04:43:12.054Z,10.93
2023-08-05T04:45:38.790Z,8.18
2023-08-05T04:48:08.701Z,10.15
2023-08-05T04:50:41.861Z,9.02
2023-08-05T04:53:08.668Z,8.45
2023-08-05T04:55:35.496Z,9.70
2023-08-05T04:58:03.922Z,11.57
2023-08-05T05:00:30.392Z,11.35
2023-08-05T05:02:56.997Z,9.88
2023-08-05T05:05:23.672Z,11.85
2023-08-05T05:07:51.588Z,11.85
2023-08-05T05:10:18.668Z,11.57
2023-08-05T05:12:45.298Z,11.70
2023-08-05T05:15:12.252Z,11.07
2023-08-05T05:17:38.863Z,8.65
2023-08-05T05:20:06.322Z,9.57
2023-08-05T05:22:34.081Z,7.97
2023-08-05T05:25:00.828Z,7.78
2023-08-05T05:27:27.438Z,8.00
2023-08-05T05:29:54.114Z,7.80
2023-08-05T05:32:20.978Z,7.68
2023-08-05T05:34:47.715Z,8.35
2023-08-05T05:37:14.323Z,6.30
2023-08-05T05:39:42.548Z,5.93
2023-08-05T05:42:10.115Z,6.63
2023-08-05T05:44:37.356Z,9.30
2023-08-05T05:47:04.283Z,8.85
2023-08-05T05:49:31.079Z,8.25
2023-08-05T05:51:57.626Z,8.23
2023-08-05T05:54:24.232Z,6.63
2023-08-05T05:56:51.036Z,6.70
2023-08-05T05:59:17.906Z,5.72
2023-08-05T06:01:46.583Z,5.45
2023-08-05T06:04:13.305Z,5.65
2023-08-05T06:06:40.033Z,5.07
2023-08-05T06:09:08.247Z,4.82
2023-08-05T06:11:35.082Z,4.72
2023-08-05T06:14:01.742Z,4.78
2023-08-05T06:16:28.314Z,4.93
2023-08-05T06:18:54.879Z,4.90
2023-08-05T06:21:23.643Z,4.70
2023-08-05T06:23:51.660Z,4.05
2023-08-05T06:26:18.326Z,4.28
2023-08-05T06:28:44.831Z,4.38
2023-08-05T06:31:11.619Z,3.83
2023-08-05T06:33:38.182Z,4.00
2023-08-05T06:36:06.493Z,3.65
2023-08-05T06:38:32.996Z,3.78
2023-08-05T06:40:59.604Z,4.20
2023-08-05T06:43:26.931Z,3.60
2023-08-05T06:45:53.874Z,3.75
2023-08-05T06:48:20.569Z,3.67
2023-08-05T06:50:47.066Z,2.85
2023-08-05T06:53:13.854Z,3.17
2023-08-05T06:55:47.961Z,3.53
2023-08-05T06:58:14.455Z,2.90
2023-08-05T07:00:41.126Z,3.20
2023-08-05T07:03:07.922Z,3.08
2023-08-05T07:05:34.887Z,3.03
2023-08-05T07:08:02.965Z,3.15
2023-08-05T07:10:31.022Z,2.83
2023-08-05T07:12:57.598Z,3.20
2023-08-05T07:15:24.148Z,3.20
2023-08-05T07:17:50.765Z,3.33
2023-08-05T07:20:17.610Z,3.28
2023-08-05T07:22:44.713Z,3.20
2023-08-05T07:25:11.504Z,3.45
2023-08-05T07:27:38.426Z,3.70
2023-08-05T07:30:05.690Z,3.60
2023-08-05T07:32:32.601Z,3.38
2023-08-05T07:35:00.946Z,3.85
2023-08-05T07:37:27.823Z,3.28
2023-08-05T07:39:54.488Z,3.63
2023-08-05T07:42:26.742Z,4.07
2023-08-05T07:44:54.351Z,3.78
2023-08-05T07:47:20.996Z,3.10
2023-08-05T07:49:49.234Z,4.05
2023-08-05T07:52:18.504Z,4.07
2023-08-05T07:54:45.803Z,4.85
2023-08-05T07:57:12.603Z,5.18
2023-08-05T07:59:39.768Z,5.85
2023-08-05T08:02:07.793Z,5.10
2023-08-05T08:04:35.915Z,4.50
2023-08-05T08:07:02.951Z,4.63
2023-08-05T08:09:29.794Z,4.65
2023-08-05T08:11:56.679Z,4.07
2023-08-05T08:14:23.344Z,4.00
2023-08-05T08:16:49.842Z,4.07
2023-08-05T08:19:19.970Z,4.55
2023-08-05T08:21:47.099Z,4.65
2023-08-05T08:24:16.048Z,4.72
2023-08-05T08:26:42.634Z,5.03
2023-08-05T08:29:09.411Z,4.80
2023-08-05T08:31:37.819Z,4.90
2023-08-05T08:39:30.101Z,5.20
2023-08-05T08:41:56.714Z,4.90
2023-08-05T08:44:23.753Z,4.68
2023-08-05T08:46:50.788Z,4.18
2023-08-05T08:49:17.486Z,4.88
2023-08-05T08:51:48.233Z,4.75
2023-08-05T08:54:18.155Z,4.93
2023-08-05T08:56:44.699Z,5.07
2023-08-05T08:59:11.192Z,4.88
2023-08-05T09:01:41.023Z,4.50
2023-08-05T09:04:09.424Z,4.30
2023-08-05T09:06:38.237Z,4.38
2023-08-05T09:09:04.904Z,4.30
2023-08-05T09:11:31.420Z,3.78
2023-08-05T09:13:58.370Z,3.97
2023-08-05T09:16:27.642Z,4.13
2023-08-05T09:18:58.133Z,4.07
2023-08-05T09:21:27.835Z,4.00
2023-08-05T09:23:56.384Z,4.00
2023-08-05T09:26:33.958Z,4.72
2023-08-05T09:29:00.900Z,4.60
2023-08-05T09:31:27.612Z,4.05
2023-08-05T09:33:54.229Z,4.25
2023-08-05T09:36:23.508Z,4.28
2023-08-05T09:39:07.544Z,4.55
2023-08-05T09:41:36.573Z,4.53
2023-08-05T09:44:05.956Z,4.80
2023-08-05T09:46:41.124Z,5.25
2023-08-05T09:49:09.622Z,5.07
2023-08-05T09:51:37.140Z,4.32
2023-08-05T09:54:06.796Z,4.55
2023-08-05T09:56:33.663Z,4.70
2023-08-05T09:59:01.648Z,4.10
2023-08-05T10:01:28.256Z,5.05
2023-08-05T10:03:59.260Z,4.60
2023-08-05T10:06:26.068Z,4.10
2023-08-05T10:08:53.598Z,4.47
2023-08-05T10:11:20.704Z,4.68
2023-08-05T10:13:53.597Z,4.60
2023-08-05T10:16:21.791Z,4.30
2023-08-05T10:18:49.446Z,4.43
2023-08-05T10:21:37.195Z,4.00
2023-08-05T10:24:14.482Z,3.40
2023-08-05T10:26:46.073Z,3.45
2023-08-05T10:29:29.331Z,3.08
2023-08-05T10:32:11.004Z,3.17
2023-08-05T10:34:37.605Z,3.10
2023-08-05T10:37:04.440Z,3.33
2023-08-05T10:39:40.752Z,3.10
2023-08-05T10:42:21.326Z,3.00
2023-08-05T10:44:51.676Z,3.15
2023-08-05T10:47:24.700Z,3.10
2023-08-05T10:49:58.416Z,2.78
2023-08-05T10:52:27.690Z,2.78
2023-08-05T10:54:54.837Z,3.00
2023-08-05T10:57:46.258Z,2.92
2023-08-05T11:00:19.107Z,2.75
2023-08-05T11:02:48.232Z,2.83
2023-08-05T11:05:15.902Z,3.42
2023-08-05T11:07:44.124Z,3.17
2023-08-05T11:10:11.372Z,3.13
2023-08-05T11:12:41.294Z,3.20
2023-08-05T11:15:10.048Z,3.03
2023-08-05T11:17:54.097Z,2.55
2023-08-05T11:20:20.695Z,2.60
2023-08-05T11:22:47.968Z,2.35
2023-08-05T11:25:18.610Z,2.70
2023-08-05T11:27:50.898Z,3.10
2023-08-05T11:30:19.026Z,3.17
2023-08-05T11:32:57.389Z,2.95
2023-08-05T11:35:25.185Z,3.03
2023-08-05T11:37:52.223Z,3.30
2023-08-05T11:40:19.034Z,2.95
2023-08-05T11:42:45.629Z,3.40
2023-08-05T11:45:14.385Z,2.90
2023-08-05T11:47:42.006Z,2.80
2023-08-05T11:50:10.599Z,3.00
2023-08-05T11:52:37.818Z,2.97
2023-08-05T11:55:06.253Z,2.90
2023-08-05T11:57:33.971Z,2.90
2023-08-05T12:00:09.845Z,3.10
2023-08-05T12:02:37.728Z,2.80
2023-08-05T12:05:07.689Z,3.05
2023-08-05T12:07:42.144Z,3.10
2023-08-05T12:10:14.471Z,3.13
2023-08-05T12:12:48.730Z,2.72
2023-08-05T12:15:28.247Z,3.13
2023-08-05T12:18:04.990Z,2.63
2023-08-05T12:20:37.007Z,2.70
2023-08-05T12:23:04.530Z,2.70
2023-08-05T12:25:33.255Z,2.70
2023-08-05T12:28:03.585Z,2.80
2023-08-05T12:30:31.891Z,2.80
2023-08-05T12:32:59.488Z,2.50
2023-08-05T12:35:27.179Z,2.80
2023-08-05T12:37:54.091Z,2.72
2023-08-05T12:40:20.964Z,2.90
2023-08-05T12:42:47.971Z,2.97
2023-08-05T12:45:20.940Z,2.80
2023-08-05T12:47:47.653Z,2.60
2023-08-05T12:50:14.353Z,2.53
2023-08-05T12:52:41.228Z,2.40
2023-08-05T12:55:08.628Z,2.75
2023-08-05T12:57:35.454Z,2.80
2023-08-05T13:00:02.595Z,2.83
2023-08-05T13:02:29.742Z,2.85
2023-08-05T13:04:57.715Z,2.67
2023-08-05T13:07:24.511Z,2.80
2023-08-05T13:09:51.160Z,2.85
2023-08-05T13:12:17.817Z,2.95
2023-08-05T13:14:45.099Z,2.58
2023-08-05T13:17:13.058Z,2.90
2023-08-05T13:19:40.097Z,2.95
2023-08-05T13:22:07.468Z,2.95
2023-08-05T13:24:35.560Z,2.70
2023-08-05T13:27:05.929Z,2.90
2023-08-05T13:29:32.598Z,2.90
2023-08-05T13:32:00.317Z,3.20
2023-08-05T13:34:28.236Z,3.10
2023-08-05T13:36:54.991Z,3.28
2023-08-05T13:39:24.050Z,2.70
2023-08-05T13:41:57.878Z,2.63
2023-08-05T13:44:25.937Z,2.92
2023-08-05T13:46:52.758Z,2.88
2023-08-05T13:49:19.420Z,2.88
2023-08-05T13:51:48.519Z,2.40
2023-08-05T13:54:17.697Z,2.58
2023-08-05T13:56:44.531Z,2.67
2023-08-05T13:59:11.445Z,2.60
2023-08-05T14:01:38.332Z,2.85
2023-08-05T14:04:05.044Z,2.67
2023-08-05T14:06:45.870Z,2.50
2023-08-05T14:09:12.990Z,2.70
2023-08-05T14:11:40.156Z,3.55
2023-08-05T14:14:07.134Z,3.00
2023-08-05T14:16:36.617Z,3.03
2023-08-05T14:19:03.199Z,2.92
2023-08-05T14:21:29.942Z,2.80
2023-08-05T14:23:56.750Z,3.20
2023-08-05T14:26:24.888Z,3.38
2023-08-05T14:28:51.599Z,3.50
2023-08-05T14:31:18.416Z,3.88
2023-08-05T14:33:45.122Z,3.75
2023-08-05T14:36:13.892Z,3.97
2023-08-05T14:38:40.591Z,4.20
2023-08-05T14:41:15.447Z,4.22
2023-08-05T14:43:42.149Z,4.65
2023-08-05T14:46:09.029Z,4.45
2023-08-05T14:48:35.920Z,4.20
2023-08-05T14:51:03.908Z,4.40
2023-08-05T14:53:30.843Z,4.30
2023-08-05T14:56:01.532Z,4.53
2023-08-05T14:58:28.119Z,4.85
2023-08-05T15:00:54.700Z,4.88
2023-08-05T15:03:21.426Z,4.70
2023-08-05T15:05:54.528Z,4.47
2023-08-05T15:08:23.423Z,4.50
2023-08-05T15:10:59.472Z,5.13
2023-08-05T15:13:26.250Z,5.03
2023-08-05T15:15:52.764Z,5.53
2023-08-05T15:18:19.318Z,5.20
2023-08-05T15:20:52.735Z,5.57
2023-08-05T15:23:30.084Z,5.63
2023-08-05T15:25:58.730Z,5.43
2023-08-05T15:28:25.311Z,5.63
2023-08-05T15:30:52.222Z,5.80
2023-08-05T15:33:19.246Z,5.90
2023-08-05T15:35:46.567Z,6.55
2023-08-05T15:38:13.089Z,6.50
2023-08-05T15:40:39.680Z,5.88
2023-08-05T15:43:06.259Z,5.70
2023-08-05T15:45:32.806Z,6.40
2023-08-05T15:47:59.408Z,5.57
2023-08-05T15:50:26.245Z,5.72
2023-08-05T15:52:52.797Z,5.78
2023-08-05T15:55:19.405Z,5.50
2023-08-05T15:57:47.697Z,5.78
2023-08-05T16:00:22.786Z,5.25
2023-08-05T16:02:52.492Z,5.22
2023-08-05T16:05:19.310Z,5.55
2023-08-05T16:07:46.043Z,5.65
2023-08-05T16:10:12.678Z,5.50
2023-08-05T16:12:39.624Z,5.90
2023-08-05T16:15:07.066Z,5.45
2023-08-05T16:17:34.626Z,5.05
2023-08-05T16:20:01.313Z,5.00
2023-08-05T16:22:27.987Z,4.82
2023-08-05T16:24:54.712Z,4.88
2023-08-05T16:27:21.405Z,4.97
2023-08-05T16:29:51.512Z,5.38
2023-08-05T16:32:18.413Z,5.85
2023-08-05T16:34:45.051Z,5.32
2023-08-05T16:37:11.751Z,6.05
2023-08-05T16:39:38.382Z,6.45
2023-08-05T16:42:05.392Z,5.70
2023-08-05T16:44:32.032Z,6.25
2023-08-05T16:46:58.788Z,5.90
2023-08-05T16:49:25.351Z,6.70
2023-08-05T16:51:52.164Z,6.05
2023-08-05T16:54:18.901Z,5.88
2023-08-05T16:56:45.556Z,6.13
2023-08-05T16:59:12.310Z,5.93
2023-08-05T17:01:38.969Z,5.95
2023-08-05T17:04:09.709Z,6.63
2023-08-05T17:06:36.414Z,6.40
2023-08-05T17:09:03.367Z,6.40
2023-08-05T17:11:29.966Z,6.55
2023-08-05T17:13:56.726Z,7.28
2023-08-05T17:16:23.475Z,7.45
2023-08-05T17:18:50.126Z,6.78
2023-08-05T17:21:16.649Z,7.03
2023-08-05T17:23:43.355Z,7.00
2023-08-05T17:26:10.174Z,7.35
2023-08-05T17:28:36.920Z,7.28
2023-08-05T17:31:04.402Z,7.50
2023-08-05T17:33:30.982Z,6.82
2023-08-05T17:35:58.728Z,5.85
2023-08-05T17:38:27.573Z,5.38
2023-08-05T17:40:54.484Z,5.07
2023-08-05T17:43:21.218Z,4.07
2023-08-05T17:45:57.187Z,4.10
2023-08-05T17:48:23.841Z,4.47
2023-08-05T17:50:57.788Z,4.60
2023-08-05T17:53:25.749Z,4.95
2023-08-05T17:55:52.734Z,4.55
2023-08-05T17:58:19.934Z,4.53
2023-08-05T18:00:46.546Z,4.85
2023-08-05T18:03:13.070Z,5.20
2023-08-05T18:05:40.641Z,4.80
2023-08-05T18:08:07.303Z,5.03
2023-08-05T18:10:34.065Z,5.28
2023-08-05T18:13:00.937Z,5.78
2023-08-05T18:15:27.429Z,6.03
2023-08-05T18:17:53.959Z,6.57
2023-08-05T18:20:21.797Z,6.50
2023-08-05T18:22:48.542Z,6.18
2023-08-05T18:25:15.313Z,6.35
2023-08-05T18:27:41.945Z,6.20
2023-08-05T18:30:08.937Z,6.70
2023-08-05T18:32:37.290Z,6.63
2023-08-05T18:35:04.372Z,6.22
2023-08-05T18:37:30.939Z,6.78
2023-08-05T18:39:57.485Z,7.18
2023-08-05T18:42:25.218Z,6.72
2023-08-05T18:44:52.547Z,7.00
2023-08-05T18:47:19.041Z,7.03
2023-08-05T18:49:45.931Z,6.40
2023-08-05T18:52:12.470Z,6.78
2023-08-05T18:54:40.540Z,7.13
2023-08-05T18:57:07.278Z,6.93
2023-08-05T18:59:33.790Z,6.55
2023-08-05T19:02:02.390Z,7.00
2023-08-05T19:04:29.472Z,6.68
2023-08-05T19:06:56.445Z,6.20
2023-08-05T19:09:23.312Z,6.80
2023-08-05T19:11:50.225Z,6.70
2023-08-05T19:14:17.038Z,6.75
2023-08-05T19:16:43.599Z,6.85
2023-08-05T19:19:10.116Z,7.10
2023-08-05T19:21:36.626Z,7.03
2023-08-05T19:24:04.561Z,7.13
2023-08-05T19:26:31.250Z,7.28
2023-08-05T19:28:58.847Z,7.30
2023-08-05T19:31:25.641Z,7.30
2023-08-05T19:33:52.319Z,7.22
2023-08-05T19:36:20.468Z,7.53
2023-08-05T19:38:47.307Z,7.15
2023-08-05T19:41:14.057Z,8.13
2023-08-05T19:43:40.792Z,6.72
2023-08-05T19:46:10.153Z,7.40
2023-08-05T19:48:37.289Z,7.75
2023-08-05T19:51:13.615Z,7.57
2023-08-05T19:53:42.365Z,7.57
2023-08-05T19:56:09.064Z,7.78
2023-08-05T19:58:35.721Z,8.48
2023-08-05T20:01:04.262Z,8.40
2023-08-05T20:03:33.391Z,7.78
2023-08-05T20:05:59.931Z,6.95
2023-08-05T20:08:26.567Z,6.60
2023-08-05T20:10:53.088Z,5.93
2023-08-05T20:13:19.698Z,5.50
2023-08-05T20:15:46.220Z,4.35
2023-08-05T20:18:12.837Z,4.85
2023-08-05T20:20:39.568Z,4.40
2023-08-05T20:23:06.202Z,3.88
2023-08-05T20:25:35.102Z,4.75
2023-08-05T20:28:02.173Z,3.90
2023-08-05T20:30:28.700Z,4.28
2023-08-05T20:32:56.898Z,3.45
2023-08-05T20:35:23.998Z,3.63
2023-08-05T20:37:50.620Z,3.63
2023-08-05T20:40:17.151Z,4.07
2023-08-05T20:42:43.766Z,4.43
2023-08-05T20:45:10.584Z,4.18
2023-08-05T20:47:37.176Z,5.45
2023-08-05T20:50:03.863Z,5.20
2023-08-05T20:52:30.556Z,5.35
2023-08-05T20:54:59.089Z,5.20
2023-08-05T20:57:26.066Z,5.72
2023-08-05T20:59:52.658Z,5.15
2023-08-05T21:02:21.239Z,5.43
2023-08-05T21:04:48.463Z,5.50
2023-08-05T21:07:15.023Z,5.57
2023-08-05T21:09:41.623Z,6.80
2023-08-05T21:12:08.690Z,6.40
2023-08-05T21:14:35.162Z,6.57
2023-08-05T21:17:02.149Z,6.95
2023-08-05T21:19:28.614Z,7.30
2023-08-05T21:21:55.256Z,8.00
2023-08-05T21:24:21.994Z,6.93
2023-08-05T21:26:48.688Z,6.20
2023-08-05T21:29:19.972Z,6.55
2023-08-05T21:31:46.712Z,6.68
2023-08-05T21:34:13.368Z,6.63
2023-08-05T21:36:39.895Z,6.45
2023-08-05T21:39:07.000Z,6.00
2023-08-05T21:41:33.567Z,4.95
2023-08-05T21:44:00.093Z,4.10
2023-08-05T21:46:26.711Z,3.60
2023-08-05T21:48:53.378Z,3.60
2023-08-05T21:51:19.998Z,3.40
2023-08-05T21:53:46.458Z,3.33
2023-08-05T21:56:12.998Z,3.20
2023-08-05T21:58:39.650Z,3.25
2023-08-05T22:01:06.118Z,3.97
2023-08-05T22:03:32.731Z,3.80
2023-08-05T22:06:06.842Z,3.53
2023-08-05T22:08:34.878Z,3.70
2023-08-05T22:11:01.386Z,3.92
2023-08-05T22:13:27.911Z,4.10
2023-08-05T22:15:55.635Z,4.15
2023-08-05T22:18:22.280Z,4.40
2023-08-05T22:20:52.208Z,4.28
2023-08-05T22:23:18.961Z,4.45
2023-08-05T22:25:46.094Z,4.70
2023-08-05T22:28:12.621Z,4.88
2023-08-05T22:30:39.375Z,5.05
2023-08-05T22:33:05.939Z,5.00
2023-08-05T22:35:32.618Z,5.43
2023-08-05T22:37:59.284Z,5.47
2023-08-05T22:40:25.955Z,5.60
2023-08-05T22:42:52.474Z,5.85
2023-08-05T22:45:18.986Z,5.22
2023-08-05T22:47:45.826Z,5.60
2023-08-05T22:50:12.324Z,5.63
2023-08-05T22:52:39.526Z,5.85
2023-08-05T22:55:06.994Z,5.18
2023-08-05T22:57:33.566Z,5.47
2023-08-05T23:00:00.062Z,5.63
2023-08-05T23:02:26.629Z,5.00
2023-08-05T23:04:53.786Z,5.32
2023-08-05T23:07:20.356Z,4.78
2023-08-05T23:09:46.856Z,5.00
2023-08-05T23:12:13.479Z,5.00
2023-08-05T23:14:40.054Z,4.68
2023-08-05T23:17:06.560Z,5.30
2023-08-05T23:19:33.059Z,4.70
2023-08-05T23:21:59.681Z,4.57
2023-08-05T23:24:26.265Z,4.20
2023-08-05T23:26:52.789Z,4.28
2023-08-05T23:29:19.321Z,4.78
2023-08-05T23:31:52.168Z,4.15
2023-08-05T23:34:18.916Z,4.38
2023-08-05T23:36:45.413Z,4.28
2023-08-05T23:39:11.960Z,4.20
2023-08-05T23:41:38.532Z,4.03
2023-08-05T23:44:05.232Z,4.80
2023-08-05T23:46:31.748Z,4.35
2023-08-05T23:48:58.279Z,4.18
2023-08-05T23:51:24.844Z,4.53
2023-08-05T23:53:51.562Z,3.35
2023-08-05T23:56:18.100Z,2.90
2023-08-05T23:58:44.845Z,3.10
